Du har inga inställningar för hoppväder.nu

Hoppväder.nu

Senast uppdaterat 05:11

UTC-tid

2020-11-26 kl. 04:11


Sol och måne

Solen går upp 8:11 och går ner 15:38 (beräknade cirkatider)
Nästa fullmåne blir om 4 dagar (2020-11-30)

METAR

ESMS (Malmö)
(21 minuter sedan)
ESMS 260350Z 23006KT 5000 BR OVC011 06/05 Q1014=



ESMK (Everöd)
(21 minuter sedan)
ESMK 260350Z AUTO 18003KT 5000 BR OVC008/// 06/05 Q1014=



ESTL (Ljungbyhed)
(21 minuter sedan)
ESTL 260350Z AUTO 21005KT 180V240 7000 BR OVC009/// 06/05 Q1013=



EKCH (Köpenhamn)
(21 minuter sedan)
EKCH 260350Z AUTO 22009KT 6000 FEW010/// OVC025/// 07/06 Q1014 TEMPO BKN010=



ESTA (Ängelholm)
(21 minuter sedan)
ESTA 260350Z AUTO 15005KT 4900 BR BKN007/// OVC009/// 06/05 Q1013=



TAF

ESMS (Malmö)
(304 minuter sedan)
ESMS 252307Z 2600/2624 24010KT 7000 BKN006 TEMPO 2600/2601 4000 BR BKN004 TEMPO 2601/2609 4000 BR SCT006 BKN015 BECMG 2609/2611 2000 RADZ BR BKN004 BECMG 2611/2613 30010KT 9999 NSW SCT020=



ESMK (Everöd)
ESMK



ESTL (Ljungbyhed)
ESTL



EKCH (Köpenhamn)
(307 minuter sedan)
EKCH 252304Z 2600/2624 23010KT 8000 BKN006 TEMPO 2600/2608 4000 BR SCT006 BECMG 2608/2610 2000 -RADZ BR BKN003 BECMG 2610/2612 29010KT 9999 NSW SCT020=



ESTA (Ängelholm)
ESTA





Kodnycklar till TAF och METAR






LHP

(Eslöv är område se11f i Hela Område 1)

Prognos är inte uppdaterad

Översikt

ÖVERSIKT FÖR OMRÅDE se1 UTFÄRDAD 260402

GÄLLANDE DEN 26 NOVEMBER 2020 MELLAN 05 OCH 13 UTC


Väderöversikt
Se väderöversikt för område se2 + se3

Sikt under 5 kilometer eller molnbas under 1000 fot
05-13UTC: I hela området


Måttlig eller svår isbildning
05-13UTC: I hela området


Måttlig eller svår turbulens
Väntas inte förekomma under perioden

Hela Område 1

PROGNOS FÖR OMRÅDE se11 UTFÄRDAD 260402
GÄLLANDE DEN 26 NOVEMBER 2020 MELLAN 05 OCH 13 UTC

Måttlig eller svår turbulens
05-13UTC: I hela området: Väntas inte förekomma under perioden

Måttlig eller svår isbildning
05-07UTC: Område se11i: Väntas inte förekomma under perioden

05-11UTC: Område se11a,se11b: måttlig isbildning FL050 - > FL125

05-13UTC: Område se11e,se11d,se11c,se11h,se11g,se11f: måttlig isbildning FL050 - > FL125

07-13UTC: Område se11i: måttlig isbildning FL050 - > FL125

11-13UTC: Område se11a,se11b: Väntas inte förekomma under perioden


Sikt/Väder/Moln
05-07UTC: Område se11e,se11d,se11b: Sikt 1.5km - 8km i dis, duggregn, regn. Molnbas <500ft - 1500ft.
Område se11a: Sikt 1.5km - 3km i dis, regn, lokalt 5km - 8km i duggregn. Molnbas <500ft, lokalt 1000ft - 1500ft.
Område se11c,se11h,se11g,se11f: Sikt 5km - 8km i dis, lokalt 1.5km - 3km i duggregn. Molnbas 1000ft - 1500ft, lokalt <500ft.

05-09UTC: Område se11i: Sikt 5km - 8km i dis, lokalt 1.5km - 3km i duggregn. Molnbas 1000ft - 1500ft, lokalt <500ft.

07-09UTC: Område se11a: Sikt 1.5km - >8km i dis, duggregn, regn. Molnbas <500ft - 4000ft.
Område se11h,se11g,se11f: Sikt 1.5km - 8km i dis, duggregn, regn. Molnbas <500ft - 1500ft.
Område se11d,se11b: Sikt 1.5km - 3km i dis, regn, lokalt 5km - 8km i duggregn. Molnbas <500ft, lokalt 1000ft - 1500ft.

07-11UTC: Område se11e,se11c: Sikt 1.5km - 3km i dis, regn, lokalt 5km - 8km i duggregn. Molnbas <500ft, lokalt 1000ft - 1500ft.

09-11UTC: Område se11d: Sikt 1.5km - >8km i dis, duggregn, regn. Molnbas <500ft - 4000ft.
Område se11a,se11b: Sikt 1.5km - >8km i dis, duggregn, regn. Molnbas <500ft - >4000ft.

09-13UTC: Område se11i,se11h,se11g,se11f: Sikt 1.5km - 3km i dis, regn, lokalt 5km - 8km i duggregn. Molnbas <500ft, lokalt 1000ft - 1500ft.

11-13UTC: Område se11e,se11c: Sikt 1.5km - >8km i dis, duggregn, regn. Molnbas <500ft - 4000ft.
Område se11a,se11b: Sikt 3km - >8km i dis. Molnbas 1000ft - >4000ft.
Område se11d: Sikt 1.5km - >8km i dis, duggregn, regn. Molnbas <500ft - >4000ft.


Molnöversida
05-07UTC: Område se11i: Molnöversida 4000ft.

05-11UTC: Område se11a,se11b: Molnöversida > FL125.

05-13UTC: Område se11e,se11d,se11c,se11h,se11g,se11f: Molnöversida > FL125.

07-13UTC: Område se11i: Molnöversida > FL125.

11-13UTC: Område se11a,se11b: Molnöversida FL070.


CB/TCU Moln
05-13UTC: I hela området: Väntas inte förekomma under perioden

Nollgradersisoterm
05-07UTC: Noll grader 3000ft - FL070.
07-09UTC: Noll grader 3000ft - FL065.
09-13UTC: Noll grader 3000ft - FL060.

Vind vid marken
05-07UTC: Område se11c: SV/6-15 knop, byar upp till 20 knop.
Område se11g: SV-V/5-18 knop, byar upp till 23 knop.
Område se11h: SV-V/3-19 knop, byar upp till 24 knop.
Område se11f: SV/3-11 knop, byar upp till 19 knop.
Område se11e: SV/2-8 knop, byar upp till 16 knop.
Område se11d: S-SV/3-18 knop, byar upp till 24 knop.
Område se11a: SV-V/3-20 knop, byar upp till 25 knop.
Område se11b: SV/8-20 knop, byar upp till 26 knop.
Område se11i: SV-V/6-19 knop, byar upp till 26 knop.

07-09UTC: Område se11d: SV/2-20 knop, byar upp till 27 knop.
Område se11b: V/9-20 knop, byar upp till 27 knop.
Område se11a: V-NV/3-19 knop, byar upp till 26 knop.
Område se11i: SV-V/7-18 knop, byar upp till 25 knop.
Område se11c: SV/6-19 knop, byar upp till 25 knop.
Område se11e: SV/2-10 knop, byar upp till 21 knop.
Område se11f: SV/3-15 knop, byar upp till 22 knop.
Område se11h: SV-V/3-18 knop, byar upp till 24 knop.
Område se11g: SV-V/9-19 knop, byar upp till 25 knop.

09-11UTC: Område se11b: V-NV/7-17 knop, byar upp till 21 knop.
Område se11f: SV-V/5-16 knop, byar upp till 25 knop.
Område se11d: V-NV/3-13 knop, byar upp till 21 knop.
Område se11g: SV-V/8-21 knop, byar upp till 27 knop.
Område se11e: SV-V/3-10 knop, byar upp till 23 knop.
Område se11c: V/6-16 knop, byar upp till 22 knop.
Område se11i: SV-V/9-22 knop, byar upp till 27 knop.
Område se11a: V-NV/3-17 knop, byar upp till 21 knop.
Område se11h: SV-V/5-22 knop, byar upp till 28 knop.

11-13UTC: Område se11i: SV-V/8-22 knop, byar upp till 30 knop.
Område se11d: V-NV/5-18 knop, byar upp till 24 knop.
Område se11g: V-NV/9-20 knop, byar upp till 26 knop.
Område se11h: V/6-21 knop, byar upp till 30 knop.
Område se11f: V-NV/6-12 knop, byar upp till 21 knop.
Område se11e: V-NV/4-10 knop, byar upp till 19 knop.
Område se11b: V-NV/11-19 knop, byar upp till 24 knop.
Område se11a: NV/5-18 knop, byar upp till 23 knop.
Område se11c: V-NV/9-15 knop, byar upp till 20 knop.


Genomsnittlig vind och temperatur för området
2000ft:
05-07UTC: 270/21kt +3.
07-09UTC: 270/22kt +4.
09-11UTC: 280/22kt +4.
11-13UTC: 300/22kt +4.

FL50:
05-07UTC: 270/25kt +2.
07-09UTC: 280/24kt +1.
09-11UTC: 280/24kt +0.
11-13UTC: 280/25kt +0.

FL100:
05-07UTC: 260/31kt -6.
07-09UTC: 260/34kt -6.
09-11UTC: 260/35kt -7.
11-13UTC: 270/36kt -8.

Lägsta QNH
1010 hPa.

OBS! endast utbredd måttlig eller svår isbildning och turbulens prognostiseras i LLF.
Avsaknad av isbildning och turbulens i prognosen utesluter inte förekomst av lätt isbildning och turbulens.
För indikation på lätt isbildning, var vänlig kontrollera om prognosen för molntopp ligger högre än nollgradersisotermen.
Förekomst av TCU eller CB medför alltid en risk för måttlig eller svår isbildning och turbulens även om det inte framgår explicit av prognosen.







Preliminär prognos